Indianapolis, Indiana
Traffic Map
Current Weather Conditions
Indianapolis, Indiana
Overcast
Overcast
51°
Feels Like: 51°
Wind Chill: 51° Ceiling: 11000
Heat Index: 51° Visibility: 10mi
Dew Point: 32° Wind: 12mph
Humidity: 48% Direction: 120° (ESE)
Pressure: 30.02in Gusts: 0mph
Raw Report DataKIND 240754Z 12010KT 10SM FEW090 OVC110 11/00 A3002 RMK AO2 SLP164 T01060000
Traffic Incident Summary
Active as of:
Severity:
Category:
InformationThere was an issue retrieving the traffic information for this location. Please try a different location or try again shortly.
Advertisements
At Last! Intellicast now available for iPhone and Android